Time;durP1;ratioP1;P1;durP2;ratioP2;P2;SDS_P1;SDS_P2;PMS_P1;PMS_P2;Temp;Humidity;BMP_temperature;BMP_pressure;BME280_temperature;BME280_humidity;BME280_pressure;Samples;Min_cycle;Max_cycle;Signal;HPM_P1;HPM_P2
2022/01/21 00:01:10;;;;;;;10.70;2.88;;;;;;;;;;5007024;28;20041;-82
2022/01/21 00:03:36;;;;;;;13.13;3.53;;;;;;;;;;5007041;28;20049;-83
2022/01/21 00:06:06;;;;;;;12.77;4.00;;;;;;;;;;5000468;28;20042;-81
2022/01/21 00:08:39;;;;;;;13.60;3.88;;;;;;;;;;5004973;28;20041;-83
2022/01/21 00:11:05;;;;;;;14.65;4.00;;;;;;;;;;5005807;28;20130;-82
2022/01/21 00:13:35;;;;;;;15.77;3.65;;;;;;;;;;5006103;28;20037;-83
2022/01/21 00:16:03;;;;;;;13.98;4.07;;;;;;;;;;5005655;28;20502;-83
2022/01/21 00:18:29;;;;;;;13.27;3.53;;;;;;;;;;5005607;28;20046;-84
2022/01/21 00:31:53;;;;;;;10.85;3.05;;;;;;;;;;5007668;28;20042;-83
2022/01/21 00:34:20;;;;;;;12.55;3.50;;;;;;;;;;5006549;28;20597;-83
2022/01/21 00:36:46;;;;;;;8.55;2.88;;;;;;;;;;5006919;28;20041;-83
2022/01/21 00:39:12;;;;;;;12.57;3.53;;;;;;;;;;5005107;28;20474;-83
2022/01/21 00:41:47;;;;;;;13.32;3.17;;;;;;;;;;5005455;28;20483;-82
2022/01/21 00:44:13;;;;;;;10.65;3.15;;;;;;;;;;5004928;28;20438;-83
2022/01/21 00:46:38;;;;;;;10.30;3.38;;;;;;;;;;5005125;28;20046;-83
2022/01/21 00:49:04;;;;;;;15.27;3.30;;;;;;;;;;5005921;28;20025;-84
2022/01/21 00:51:30;;;;;;;11.70;3.60;;;;;;;;;;5005251;28;20050;-83
2022/01/21 00:53:56;;;;;;;14.30;3.90;;;;;;;;;;5006797;28;20049;-83
2022/01/21 00:56:22;;;;;;;8.82;3.35;;;;;;;;;;5007050;28;20073;-83
2022/01/21 00:58:48;;;;;;;12.50;3.85;;;;;;;;;;5006975;28;20057;-83
2022/01/21 01:01:14;;;;;;;13.52;3.67;;;;;;;;;;4989605;28;20409;-83
2022/01/21 01:03:40;;;;;;;10.15;3.53;;;;;;;;;;4989855;28;20649;-83
2022/01/21 01:06:06;;;;;;;11.00;3.67;;;;;;;;;;4998431;28;20044;-84
2022/01/21 01:08:32;;;;;;;10.23;3.97;;;;;;;;;;4983901;28;20038;-83
2022/01/21 01:11:17;;;;;;;13.45;3.85;;;;;;;;;;4982758;28;20101;-83
2022/01/21 01:21:57;;;;;;;16.85;4.60;;;;;;;;;;4983994;28;20038;-83
2022/01/21 01:29:53;;;;;;;13.10;4.65;;;;;;;;;;4987420;28;20038;-82
2022/01/21 01:32:19;;;;;;;11.02;4.32;;;;;;;;;;4987204;28;20501;-83
2022/01/21 01:34:45;;;;;;;14.00;4.65;;;;;;;;;;4987020;28;20046;-84
2022/01/21 01:37:24;;;;;;;12.13;4.57;;;;;;;;;;4987144;28;20042;-84
2022/01/21 01:40:00;;;;;;;11.38;4.70;;;;;;;;;;4987246;28;20034;-84
2022/01/21 01:42:49;;;;;;;13.80;4.35;;;;;;;;;;4987195;28;20038;-84
2022/01/21 01:50:41;;;;;;;12.98;4.57;;;;;;;;;;4987732;28;20042;-84
2022/01/21 01:53:08;;;;;;;10.63;4.40;;;;;;;;;;4986447;28;20425;-84
2022/01/21 01:55:35;;;;;;;17.10;5.70;;;;;;;;;;4986843;28;20046;-84
2022/01/21 01:58:01;;;;;;;13.27;4.35;;;;;;;;;;4986713;28;20057;-84
2022/01/21 02:00:27;;;;;;;12.48;5.20;;;;;;;;;;4985961;28;20050;-84
2022/01/21 02:02:53;;;;;;;11.93;4.57;;;;;;;;;;4986198;28;20077;-84
2022/01/21 02:05:19;;;;;;;14.38;4.28;;;;;;;;;;4986308;28;20073;-84
2022/01/21 02:07:45;;;;;;;12.63;4.43;;;;;;;;;;5002199;28;20081;-84
2022/01/21 02:10:12;;;;;;;22.75;5.20;;;;;;;;;;5004412;28;20042;-84
2022/01/21 02:12:40;;;;;;;19.10;4.65;;;;;;;;;;5008524;28;20037;-85
2022/01/21 02:15:07;;;;;;;16.42;5.57;;;;;;;;;;5005547;28;20058;-85
2022/01/21 02:22:47;;;;;;;15.35;5.40;;;;;;;;;;5006424;28;20038;-84
2022/01/21 02:25:19;;;;;;;19.00;4.88;;;;;;;;;;5004785;28;20506;-84
2022/01/21 02:27:59;;;;;;;13.90;4.78;;;;;;;;;;5005718;28;20049;-84
2022/01/21 02:30:25;;;;;;;11.38;4.78;;;;;;;;;;5005341;28;21079;-83
2022/01/21 02:32:56;;;;;;;11.65;4.80;;;;;;;;;;5003581;28;20049;-84
2022/01/21 02:35:23;;;;;;;12.37;4.90;;;;;;;;;;5004661;28;20876;-84
2022/01/21 02:37:50;;;;;;;18.90;5.13;;;;;;;;;;5003916;28;20065;-84
2022/01/21 02:40:17;;;;;;;16.05;5.50;;;;;;;;;;5001697;28;20061;-84
2022/01/21 02:47:54;;;;;;;13.80;4.75;;;;;;;;;;5984081;22;20069;-83
2022/01/21 02:50:23;;;;;;;18.17;5.70;;;;;;;;;;4970268;23;20063;-74
2022/01/21 02:53:08;;;;;;;16.25;5.22;;;;;;;;;;4966147;28;20037;-73
2022/01/21 02:55:34;;;;;;;13.23;5.15;;;;;;;;;;4979331;28;20063;-73
2022/01/21 02:57:59;;;;;;;11.10;4.80;;;;;;;;;;4966661;28;20043;-72
2022/01/21 03:00:25;;;;;;;15.18;4.50;;;;;;;;;;4996349;28;20072;-72
2022/01/21 03:02:51;;;;;;;17.20;5.60;;;;;;;;;;5006890;28;20030;-72
2022/01/21 03:05:18;;;;;;;15.77;4.80;;;;;;;;;;5020767;28;20029;-74
2022/01/21 03:07:45;;;;;;;14.30;5.13;;;;;;;;;;5022601;28;20467;-71
2022/01/21 03:10:12;;;;;;;18.00;5.30;;;;;;;;;;5025733;28;20037;-72
2022/01/21 03:12:38;;;;;;;18.05;4.93;;;;;;;;;;5025510;28;20506;-73
2022/01/21 03:15:05;;;;;;;14.38;5.35;;;;;;;;;;5025850;28;20041;-73
2022/01/21 03:17:30;;;;;;;15.63;5.03;;;;;;;;;;5024894;28;20054;-71
2022/01/21 03:19:56;;;;;;;18.63;5.75;;;;;;;;;;5025911;28;20523;-75
2022/01/21 03:22:22;;;;;;;17.27;5.32;;;;;;;;;;5010130;28;20081;-72
2022/01/21 03:24:48;;;;;;;14.98;5.25;;;;;;;;;;5023459;28;20095;-72
2022/01/21 03:27:14;;;;;;;14.90;5.50;;;;;;;;;;5024612;28;20506;-72
2022/01/21 03:29:40;;;;;;;14.05;5.13;;;;;;;;;;5021718;28;20029;-73
2022/01/21 03:32:06;;;;;;;15.93;5.45;;;;;;;;;;5027457;28;20045;-72
2022/01/21 03:34:32;;;;;;;14.80;5.25;;;;;;;;;;5027686;28;20029;-71
2022/01/21 03:36:58;;;;;;;15.05;5.15;;;;;;;;;;5027253;28;20148;-72
2022/01/21 03:39:24;;;;;;;14.20;5.40;;;;;;;;;;5027444;28;20127;-72
2022/01/21 03:41:50;;;;;;;11.10;4.93;;;;;;;;;;5027137;28;20044;-74
2022/01/21 03:44:15;;;;;;;12.55;5.30;;;;;;;;;;5020033;28;20077;-73
2022/01/21 03:46:42;;;;;;;16.48;5.57;;;;;;;;;;5027498;28;20034;-73
2022/01/21 03:49:08;;;;;;;12.88;5.15;;;;;;;;;;5026621;28;20057;-73
2022/01/21 03:51:35;;;;;;;17.05;4.90;;;;;;;;;;5027325;28;20033;-73
2022/01/21 03:54:01;;;;;;;16.77;5.50;;;;;;;;;;5027418;28;20060;-73
2022/01/21 03:56:27;;;;;;;13.45;4.45;;;;;;;;;;5027417;28;20489;-73
2022/01/21 03:58:53;;;;;;;8.65;4.57;;;;;;;;;;5015453;28;20168;-73
2022/01/21 04:01:20;;;;;;;18.45;5.20;;;;;;;;;;5046514;28;20613;-73
2022/01/21 04:03:46;;;;;;;15.07;5.30;;;;;;;;;;5046768;28;20462;-72
2022/01/21 04:06:12;;;;;;;21.27;4.78;;;;;;;;;;5035324;28;20069;-72
2022/01/21 04:08:38;;;;;;;14.40;4.95;;;;;;;;;;5026296;28;20033;-71
2022/01/21 04:11:04;;;;;;;16.75;5.28;;;;;;;;;;5026987;28;20079;-72
2022/01/21 04:13:30;;;;;;;14.57;5.00;;;;;;;;;;5027033;28;20406;-74
2022/01/21 04:15:58;;;;;;;11.85;5.13;;;;;;;;;;5026979;28;20041;-73
2022/01/21 04:18:24;;;;;;;12.38;4.60;;;;;;;;;;5026790;28;20045;-73
2022/01/21 04:20:51;;;;;;;11.65;4.60;;;;;;;;;;5027213;28;20136;-74
2022/01/21 04:23:19;;;;;;;15.70;6.05;;;;;;;;;;5010937;28;20054;-72
2022/01/21 04:25:45;;;;;;;17.27;5.82;;;;;;;;;;5021806;28;20046;-73
2022/01/21 04:28:11;;;;;;;19.52;5.85;;;;;;;;;;4999661;28;20048;-73
2022/01/21 04:30:37;;;;;;;14.27;5.28;;;;;;;;;;5000978;28;20452;-72
2022/01/21 04:33:04;;;;;;;19.73;6.00;;;;;;;;;;5004451;28;20473;-72
2022/01/21 04:35:31;;;;;;;16.65;5.60;;;;;;;;;;5024384;28;20065;-72
2022/01/21 04:38:02;;;;;;;15.95;5.47;;;;;;;;;;5026737;28;20049;-73
2022/01/21 04:40:32;;;;;;;15.18;5.68;;;;;;;;;;5026501;28;20037;-74
2022/01/21 04:48:29;;;;;;;15.77;6.13;;;;;;;;;;5026464;28;20037;-72
2022/01/21 04:53:23;;;;;;;20.02;6.32;;;;;;;;;;5026098;28;20041;-72
2022/01/21 04:55:49;;;;;;;18.88;5.75;;;;;;;;;;5021967;28;20037;-73
2022/01/21 04:58:15;;;;;;;20.60;6.60;;;;;;;;;;5025868;28;20045;-72
2022/01/21 05:00:43;;;;;;;12.35;6.25;;;;;;;;;;5025020;28;20054;-73
2022/01/21 05:03:10;;;;;;;16.17;6.85;;;;;;;;;;5009094;28;20057;-72
2022/01/21 05:05:37;;;;;;;15.35;7.22;;;;;;;;;;5019122;28;20029;-73
2022/01/21 05:08:07;;;;;;;21.08;6.95;;;;;;;;;;4988010;28;20051;-73
2022/01/21 05:10:34;;;;;;;14.07;6.78;;;;;;;;;;5003339;28;20056;-73
2022/01/21 05:13:00;;;;;;;15.93;6.63;;;;;;;;;;5014137;28;20467;-73
2022/01/21 05:15:42;;;;;;;17.17;6.30;;;;;;;;;;5005791;28;20541;-72
2022/01/21 05:18:08;;;;;;;16.98;6.10;;;;;;;;;;5009954;28;20042;-73
2022/01/21 05:20:34;;;;;;;15.73;6.13;;;;;;;;;;5006755;28;20526;-74
2022/01/21 05:23:00;;;;;;;16.90;6.25;;;;;;;;;;4998873;28;20290;-72
2022/01/21 05:25:25;;;;;;;14.00;6.30;;;;;;;;;;4983167;28;20023;-71
2022/01/21 05:27:54;;;;;;;20.75;6.63;;;;;;;;;;5035829;28;20061;-72
2022/01/21 05:30:20;;;;;;;16.15;6.57;;;;;;;;;;5015775;28;20033;-72
2022/01/21 05:32:46;;;;;;;18.15;6.45;;;;;;;;;;4948859;28;20061;-74
2022/01/21 05:35:13;;;;;;;15.73;6.15;;;;;;;;;;4995853;28;20056;-73
2022/01/21 05:37:39;;;;;;;18.13;6.70;;;;;;;;;;5010242;28;20038;-72
2022/01/21 05:40:15;;;;;;;14.52;6.07;;;;;;;;;;4998753;28;20034;-73
2022/01/21 05:42:41;;;;;;;19.25;7.32;;;;;;;;;;5002429;28;20033;-72
2022/01/21 05:47:34;;;;;;;21.70;7.88;;;;;;;;;;5007343;28;20033;-72
2022/01/21 05:49:59;;;;;;;17.40;6.45;;;;;;;;;;5014832;28;20069;-72
2022/01/21 05:52:35;;;;;;;15.10;6.43;;;;;;;;;;4986573;28;20081;-74
2022/01/21 05:55:02;;;;;;;16.30;7.18;;;;;;;;;;4983785;28;20561;-73
2022/01/21 05:57:30;;;;;;;16.10;6.40;;;;;;;;;;5010198;28;20043;-74
2022/01/21 05:59:57;;;;;;;16.42;7.07;;;;;;;;;;4985677;28;20221;-72
2022/01/21 06:02:23;;;;;;;20.05;7.07;;;;;;;;;;5003880;28;20034;-72
2022/01/21 06:04:50;;;;;;;16.38;7.07;;;;;;;;;;4997163;28;20534;-72
2022/01/21 06:07:17;;;;;;;22.42;7.32;;;;;;;;;;4974859;28;20647;-73
2022/01/21 06:09:43;;;;;;;19.25;7.88;;;;;;;;;;4987757;28;20026;-71
2022/01/21 06:12:10;;;;;;;17.92;7.20;;;;;;;;;;5004765;28;20034;-71
2022/01/21 06:14:37;;;;;;;23.13;7.45;;;;;;;;;;5005471;28;20037;-72
2022/01/21 06:17:04;;;;;;;15.73;7.20;;;;;;;;;;5000191;28;20046;-72
2022/01/21 06:19:30;;;;;;;16.15;9.02;;;;;;;;;;5017755;28;20037;-72
2022/01/21 06:21:55;;;;;;;43.35;14.27;;;;;;;;;;5014372;28;20044;-73
2022/01/21 06:24:21;;;;;;;29.83;14.27;;;;;;;;;;4975161;28;20133;-72
2022/01/21 06:26:48;;;;;;;18.88;7.88;;;;;;;;;;5010938;28;20930;-73
2022/01/21 06:29:14;;;;;;;24.02;7.82;;;;;;;;;;4997868;28;20057;-72
2022/01/21 06:31:40;;;;;;;20.35;8.05;;;;;;;;;;5013266;28;20031;-72
2022/01/21 06:34:05;;;;;;;22.83;7.80;;;;;;;;;;4981762;28;20138;-72
2022/01/21 06:36:31;;;;;;;20.70;7.25;;;;;;;;;;4998525;28;20061;-71
2022/01/21 06:38:57;;;;;;;13.25;6.60;;;;;;;;;;5002000;28;20045;-71
2022/01/21 06:41:23;;;;;;;19.25;7.22;;;;;;;;;;4994867;28;20069;-71
2022/01/21 06:43:50;;;;;;;22.98;8.40;;;;;;;;;;5011045;28;20547;-72
2022/01/21 06:46:16;;;;;;;17.00;7.00;;;;;;;;;;5014651;28;20053;-71
2022/01/21 06:48:42;;;;;;;18.52;7.95;;;;;;;;;;5021423;28;20057;-71
2022/01/21 06:51:08;;;;;;;21.30;7.75;;;;;;;;;;5016824;28;20056;-71
2022/01/21 06:53:34;;;;;;;18.40;7.65;;;;;;;;;;5022861;28;20045;-71
2022/01/21 06:56:00;;;;;;;23.00;8.60;;;;;;;;;;5003066;28;20421;-71
2022/01/21 06:58:26;;;;;;;20.00;8.13;;;;;;;;;;5002740;28;20046;-71
2022/01/21 07:00:52;;;;;;;22.15;7.78;;;;;;;;;;5022510;28;20048;-70
2022/01/21 07:03:18;;;;;;;17.42;7.10;;;;;;;;;;4989523;28;20149;-73
2022/01/21 07:05:46;;;;;;;19.60;7.38;;;;;;;;;;4987042;28;20049;-72
2022/01/21 07:08:15;;;;;;;15.43;6.65;;;;;;;;;;5022924;28;20057;-72
2022/01/21 07:10:41;;;;;;;24.70;7.20;;;;;;;;;;5025128;28;20052;-72
2022/01/21 07:13:07;;;;;;;18.83;7.53;;;;;;;;;;5003226;28;20122;-72
2022/01/21 07:15:33;;;;;;;16.20;7.20;;;;;;;;;;5021907;28;20049;-73
2022/01/21 07:17:59;;;;;;;21.23;7.32;;;;;;;;;;5024299;28;20065;-71
2022/01/21 07:20:25;;;;;;;17.27;7.82;;;;;;;;;;5010162;28;20053;-71
2022/01/21 07:22:51;;;;;;;21.73;7.30;;;;;;;;;;5012777;28;20364;-72
2022/01/21 07:25:17;;;;;;;22.08;7.20;;;;;;;;;;5005813;28;20054;-72
2022/01/21 07:27:44;;;;;;;21.63;7.72;;;;;;;;;;5007214;28;20045;-72
2022/01/21 07:30:12;;;;;;;25.13;8.27;;;;;;;;;;4993737;28;20038;-75
2022/01/21 07:32:39;;;;;;;18.25;7.10;;;;;;;;;;4969032;28;20046;-75
2022/01/21 07:35:07;;;;;;;26.55;7.25;;;;;;;;;;4994922;28;20392;-74
2022/01/21 07:37:33;;;;;;;20.75;9.10;;;;;;;;;;4953598;28;20518;-71
2022/01/21 07:39:59;;;;;;;34.55;15.07;;;;;;;;;;4997449;28;20495;-72
2022/01/21 07:42:26;;;;;;;28.10;11.40;;;;;;;;;;4993741;28;20041;-73
2022/01/21 07:44:52;;;;;;;27.05;7.90;;;;;;;;;;5017393;28;20046;-71
2022/01/21 07:47:18;;;;;;;24.35;8.48;;;;;;;;;;4998190;28;20061;-71
2022/01/21 07:49:44;;;;;;;20.88;8.70;;;;;;;;;;4976167;28;20137;-72
2022/01/21 07:52:10;;;;;;;18.52;7.25;;;;;;;;;;4983787;28;20049;-71
2022/01/21 07:54:36;;;;;;;23.48;7.28;;;;;;;;;;5006383;28;20054;-71
2022/01/21 07:57:02;;;;;;;20.55;8.07;;;;;;;;;;5012070;28;20048;-71
2022/01/21 07:59:28;;;;;;;22.98;8.43;;;;;;;;;;5020272;28;20050;-73
2022/01/21 08:01:54;;;;;;;22.05;7.38;;;;;;;;;;5009481;28;20053;-71
2022/01/21 08:04:20;;;;;;;20.05;8.50;;;;;;;;;;5016721;28;20089;-72
2022/01/21 08:06:45;;;;;;;18.23;7.80;;;;;;;;;;5001066;28;20114;-71
2022/01/21 08:09:11;;;;;;;25.10;8.30;;;;;;;;;;5003808;28;20695;-71
2022/01/21 08:11:37;;;;;;;41.20;15.45;;;;;;;;;;5027349;28;20036;-73
2022/01/21 08:14:03;;;;;;;19.92;7.60;;;;;;;;;;5004503;28;20464;-74
2022/01/21 08:16:29;;;;;;;20.50;7.90;;;;;;;;;;5004752;28;20045;-72
2022/01/21 08:18:56;;;;;;;18.70;7.32;;;;;;;;;;5025725;28;20509;-72
2022/01/21 08:21:22;;;;;;;28.92;8.27;;;;;;;;;;5027391;28;20049;-72
2022/01/21 08:23:50;;;;;;;32.28;7.65;;;;;;;;;;5017511;28;20029;-72
2022/01/21 08:26:21;;;;;;;17.90;7.63;;;;;;;;;;5012431;28;20468;-70
2022/01/21 08:28:48;;;;;;;22.63;7.75;;;;;;;;;;5024481;28;20049;-71
2022/01/21 08:31:14;;;;;;;22.40;8.02;;;;;;;;;;5018423;28;20052;-71
2022/01/21 08:38:52;;;;;;;17.95;7.32;;;;;;;;;;5087757;22;20062;-70
2022/01/21 08:41:18;;;;;;;18.65;6.68;;;;;;;;;;4936770;28;20040;-70
2022/01/21 08:43:45;;;;;;;19.98;6.28;;;;;;;;;;4953555;28;20058;-71
2022/01/21 08:46:11;;;;;;;15.68;6.65;;;;;;;;;;4978684;28;20487;-71
2022/01/21 08:48:37;;;;;;;18.77;7.30;;;;;;;;;;4975871;28;20077;-72
2022/01/21 08:51:09;;;;;;;19.13;6.18;;;;;;;;;;4999556;28;20041;-71
2022/01/21 08:53:36;;;;;;;14.80;5.60;;;;;;;;;;5022118;28;20037;-72
2022/01/21 08:56:04;;;;;;;16.67;6.13;;;;;;;;;;5015152;28;20427;-72
2022/01/21 08:58:30;;;;;;;18.58;6.32;;;;;;;;;;4989592;28;20068;-71
2022/01/21 09:00:56;;;;;;;26.50;11.68;;;;;;;;;;5019486;28;20061;-71
2022/01/21 09:03:22;;;;;;;17.58;6.85;;;;;;;;;;5010963;28;20282;-71
2022/01/21 09:05:48;;;;;;;22.77;6.60;;;;;;;;;;5005591;28;20041;-71
2022/01/21 09:08:22;;;;;;;17.77;6.57;;;;;;;;;;5001783;28;20050;-71
2022/01/21 09:10:55;;;;;;;21.25;6.32;;;;;;;;;;4949145;28;20049;-71
2022/01/21 09:13:22;;;;;;;16.10;5.85;;;;;;;;;;4998336;28;20038;-72
2022/01/21 09:15:48;;;;;;;17.58;6.35;;;;;;;;;;4983794;28;20042;-72
2022/01/21 09:18:18;;;;;;;17.10;6.35;;;;;;;;;;4962975;28;20057;-71
2022/01/21 09:20:45;;;;;;;18.02;6.43;;;;;;;;;;5000274;28;20037;-72
2022/01/21 09:23:10;;;;;;;19.15;6.32;;;;;;;;;;5011436;28;20042;-72
2022/01/21 09:25:37;;;;;;;16.27;5.70;;;;;;;;;;5002354;28;20038;-72
2022/01/21 09:28:03;;;;;;;15.13;5.90;;;;;;;;;;5012913;28;20056;-71
2022/01/21 09:30:29;;;;;;;21.42;6.50;;;;;;;;;;5018010;28;20041;-70
2022/01/21 09:32:56;;;;;;;20.35;5.85;;;;;;;;;;5022385;28;20045;-71
2022/01/21 09:35:22;;;;;;;16.42;6.22;;;;;;;;;;5014411;28;20056;-70
2022/01/21 09:37:48;;;;;;;14.82;6.15;;;;;;;;;;5015190;28;20049;-71
2022/01/21 09:40:14;;;;;;;16.90;5.50;;;;;;;;;;5009983;28;20072;-70
2022/01/21 09:42:40;;;;;;;17.33;6.38;;;;;;;;;;5009761;28;20049;-71
2022/01/21 09:45:12;;;;;;;19.08;6.03;;;;;;;;;;5013122;28;20076;-70
2022/01/21 09:47:46;;;;;;;17.85;5.57;;;;;;;;;;5014940;28;20041;-70
2022/01/21 09:50:18;;;;;;;21.92;5.93;;;;;;;;;;5012930;28;20038;-70
2022/01/21 09:52:52;;;;;;;14.20;4.97;;;;;;;;;;4997936;28;20045;-72
2022/01/21 09:55:22;;;;;;;21.00;8.50;;;;;;;;;;5007839;28;20046;-73
2022/01/21 09:57:51;;;;;;;21.90;8.02;;;;;;;;;;5009833;28;20038;-71
2022/01/21 10:00:18;;;;;;;19.95;5.68;;;;;;;;;;4995786;28;20049;-71
2022/01/21 10:02:45;;;;;;;17.33;5.50;;;;;;;;;;5024739;28;20030;-70
2022/01/21 10:05:12;;;;;;;16.52;5.63;;;;;;;;;;5024203;28;20029;-71
2022/01/21 10:07:45;;;;;;;17.48;6.25;;;;;;;;;;4987584;28;20047;-71
2022/01/21 10:10:11;;;;;;;12.80;4.68;;;;;;;;;;5005781;28;20429;-70
2022/01/21 10:12:43;;;;;;;17.23;5.50;;;;;;;;;;5005461;28;20037;-70
2022/01/21 10:15:09;;;;;;;20.90;5.47;;;;;;;;;;5005290;28;20052;-70
2022/01/21 10:17:36;;;;;;;15.45;5.40;;;;;;;;;;5013154;28;20042;-70
2022/01/21 10:20:17;;;;;;;16.92;5.32;;;;;;;;;;4993294;28;20041;-71
2022/01/21 10:23:09;;;;;;;14.05;5.30;;;;;;;;;;5004864;28;20486;-70
2022/01/21 10:25:37;;;;;;;16.15;5.28;;;;;;;;;;5004679;28;20050;-71
2022/01/21 10:28:19;;;;;;;19.10;5.30;;;;;;;;;;4994837;28;20049;-70
2022/01/21 10:30:48;;;;;;;16.30;5.30;;;;;;;;;;4933777;28;20049;-70
2022/01/21 10:33:24;;;;;;;16.50;5.45;;;;;;;;;;5001560;28;20522;-71
2022/01/21 10:36:05;;;;;;;18.90;5.13;;;;;;;;;;5002947;28;20474;-70
2022/01/21 10:38:31;;;;;;;16.43;5.47;;;;;;;;;;5006676;28;20046;-71
2022/01/21 10:41:05;;;;;;;15.93;5.65;;;;;;;;;;4985787;28;20189;-71
2022/01/21 10:43:32;;;;;;;14.07;5.30;;;;;;;;;;5021537;28;20513;-70
2022/01/21 10:45:59;;;;;;;13.93;5.75;;;;;;;;;;5024506;28;20040;-70
2022/01/21 10:48:49;;;;;;;14.88;4.82;;;;;;;;;;5024534;28;20048;-70
2022/01/21 10:51:22;;;;;;;18.90;4.63;;;;;;;;;;5001802;28;20033;-70
2022/01/21 10:53:48;;;;;;;14.57;5.00;;;;;;;;;;5023120;28;20372;-70
2022/01/21 10:56:17;;;;;;;13.50;6.20;;;;;;;;;;5024370;28;20065;-73
2022/01/21 10:58:45;;;;;;;10.13;4.80;;;;;;;;;;5008019;28;20592;-70
2022/01/21 11:01:17;;;;;;;14.25;5.00;;;;;;;;;;5023105;28;20064;-74
2022/01/21 11:04:09;;;;;;;10.73;4.78;;;;;;;;;;5000769;28;20569;-70
2022/01/21 11:06:48;;;;;;;29.52;14.38;;;;;;;;;;5013919;28;20084;-72
2022/01/21 11:09:21;;;;;;;14.85;4.53;;;;;;;;;;5013023;28;20057;-72
2022/01/21 11:12:08;;;;;;;11.38;4.93;;;;;;;;;;5012769;28;20048;-72
2022/01/21 11:14:34;;;;;;;11.70;4.43;;;;;;;;;;4985666;28;20387;-71
2022/01/21 11:17:16;;;;;;;10.50;4.53;;;;;;;;;;5021019;28;20382;-71
2022/01/21 11:20:15;;;;;;;12.32;5.75;;;;;;;;;;5012145;28;20037;-72
2022/01/21 11:22:56;;;;;;;11.85;5.78;;;;;;;;;;5012345;28;20391;-72
2022/01/21 11:25:47;;;;;;;11.93;5.32;;;;;;;;;;5013564;28;20030;-71
2022/01/21 11:28:18;;;;;;;8.75;4.40;;;;;;;;;;4997863;28;20380;-73
2022/01/21 11:30:45;;;;;;;;;;;;;;;;;;5010259;28;20042;-70
2022/01/21 11:33:11;;;;;;;11.30;4.70;;;;;;;;;;5005996;28;20693;-70
2022/01/21 11:35:38;;;;;;;14.30;4.60;;;;;;;;;;5022562;28;20033;-70
2022/01/21 11:38:11;;;;;;;11.23;4.47;;;;;;;;;;5026917;28;20049;-71
2022/01/21 11:40:39;;;;;;;15.23;3.92;;;;;;;;;;5025609;28;20056;-72
2022/01/21 11:43:07;;;;;;;10.02;3.53;;;;;;;;;;5024835;28;20049;-71
2022/01/21 11:46:05;;;;;;;9.40;3.92;;;;;;;;;;5026658;28;20049;-73
2022/01/21 11:50:51;;;;;;;10.68;3.60;;;;;;;;;;5024706;28;20038;-71
2022/01/21 11:53:46;;;;;;;14.88;3.22;;;;;;;;;;5023967;28;20406;-71
2022/01/21 11:56:43;;;;;;;7.40;3.20;;;;;;;;;;5024683;28;20052;-71
2022/01/21 12:01:56;;;;;;;20.92;8.32;;;;;;;;;;5010021;28;20092;-72
2022/01/21 12:04:31;;;;;;;11.68;3.28;;;;;;;;;;5024935;28;20049;-73
2022/01/21 12:06:58;;;;;;;10.35;3.05;;;;;;;;;;5011853;28;20260;-71
2022/01/21 12:09:56;;;;;;;11.13;3.85;;;;;;;;;;5006935;28;20049;-71
2022/01/21 12:12:24;;;;;;;8.02;2.90;;;;;;;;;;4988348;28;20057;-71
2022/01/21 12:15:02;;;;;;;10.88;2.70;;;;;;;;;;5005602;28;20053;-74
2022/01/21 12:17:46;;;;;;;9.48;3.47;;;;;;;;;;5005886;28;20392;-71
2022/01/21 12:20:12;;;;;;;12.93;3.15;;;;;;;;;;5003293;28;20423;-71
2022/01/21 12:22:38;;;;;;;8.70;3.70;;;;;;;;;;5007100;28;20134;-73
2022/01/21 12:25:06;;;;;;;9.18;3.20;;;;;;;;;;5020958;28;20046;-71
2022/01/21 12:27:33;;;;;;;10.45;3.20;;;;;;;;;;4999397;28;20034;-71
2022/01/21 12:30:27;;;;;;;11.10;3.30;;;;;;;;;;5017332;28;20064;-70
2022/01/21 12:32:57;;;;;;;9.75;3.33;;;;;;;;;;5007177;28;20042;-69
2022/01/21 12:35:23;;;;;;;10.60;3.83;;;;;;;;;;5004221;28;20061;-71
2022/01/21 12:40:56;;;;;;;8.10;3.28;;;;;;;;;;5011286;28;20048;-71
2022/01/21 12:43:40;;;;;;;9.32;3.08;;;;;;;;;;5024038;28;20462;-71
2022/01/21 12:46:14;;;;;;;8.48;3.20;;;;;;;;;;5012408;28;20482;-71
2022/01/21 12:48:43;;;;;;;9.80;3.40;;;;;;;;;;5009301;28;20582;-71
2022/01/21 12:51:21;;;;;;;10.30;3.22;;;;;;;;;;5018146;28;20054;-71
2022/01/21 12:57:18;;;;;;;7.78;2.85;;;;;;;;;;4968183;28;20518;-72
2022/01/21 12:59:54;;;;;;;7.53;3.08;;;;;;;;;;4993723;28;20454;-72
2022/01/21 13:02:29;;;;;;;7.55;2.90;;;;;;;;;;4996924;28;20053;-71
2022/01/21 13:05:04;;;;;;;8.23;2.90;;;;;;;;;;4989883;28;20675;-71
2022/01/21 13:07:50;;;;;;;9.25;2.92;;;;;;;;;;5014397;28;20411;-69
2022/01/21 13:10:21;;;;;;;8.30;3.72;;;;;;;;;;5006683;28;20042;-71
2022/01/21 13:15:41;;;;;;;11.70;3.15;;;;;;;;;;5023740;28;19917;-71
2022/01/21 13:18:23;;;;;;;8.68;2.75;;;;;;;;;;5025136;28;20052;-72
2022/01/21 13:20:52;;;;;;;5.80;2.85;;;;;;;;;;5026026;28;20056;-71
2022/01/21 13:23:51;;;;;;;9.73;3.22;;;;;;;;;;5025784;28;20053;-71
2022/01/21 13:26:23;;;;;;;9.40;3.63;;;;;;;;;;5014529;28;20036;-71
2022/01/21 13:28:54;;;;;;;12.18;3.65;;;;;;;;;;5004255;28;20397;-71
2022/01/21 13:31:20;;;;;;;11.18;3.88;;;;;;;;;;5021418;28;20045;-72
2022/01/21 13:33:46;;;;;;;8.77;3.38;;;;;;;;;;5006483;28;20038;-71
2022/01/21 13:36:12;;;;;;;8.55;3.15;;;;;;;;;;5019575;28;20053;-71
2022/01/21 13:38:41;;;;;;;13.27;3.63;;;;;;;;;;5008735;28;20065;-72
2022/01/21 13:41:11;;;;;;;10.73;3.35;;;;;;;;;;5019262;28;20041;-71
2022/01/21 13:43:37;;;;;;;8.57;3.30;;;;;;;;;;5007974;28;20056;-71
2022/01/21 13:46:08;;;;;;;12.10;3.90;;;;;;;;;;5016511;28;20046;-72
2022/01/21 13:48:36;;;;;;;10.77;2.90;;;;;;;;;;5017667;28;20109;-71
2022/01/21 13:51:06;;;;;;;11.10;3.38;;;;;;;;;;5006076;28;20345;-72
2022/01/21 13:53:31;;;;;;;10.27;3.00;;;;;;;;;;5018122;28;20415;-72
2022/01/21 13:56:01;;;;;;;8.18;2.60;;;;;;;;;;5009075;28;20054;-71
2022/01/21 13:58:37;;;;;;;9.98;3.03;;;;;;;;;;5013010;28;20046;-72
2022/01/21 14:01:06;;;;;;;9.73;3.25;;;;;;;;;;5008641;28;20045;-72
2022/01/21 14:03:35;;;;;;;11.90;3.15;;;;;;;;;;4995502;28;20034;-72
2022/01/21 14:06:10;;;;;;;10.75;3.05;;;;;;;;;;4979129;28;20464;-71
2022/01/21 14:08:44;;;;;;;9.00;2.90;;;;;;;;;;5013956;28;20479;-71
2022/01/21 14:11:11;;;;;;;10.55;3.25;;;;;;;;;;4994791;28;20053;-71
2022/01/21 14:13:42;;;;;;;8.52;2.97;;;;;;;;;;5005724;28;20026;-71
2022/01/21 14:16:11;;;;;;;7.95;2.78;;;;;;;;;;5002848;28;20590;-72
2022/01/21 14:18:39;;;;;;;7.03;2.75;;;;;;;;;;5011548;28;20038;-71
2022/01/21 14:21:08;;;;;;;8.02;2.65;;;;;;;;;;5010266;28;20065;-71
2022/01/21 14:23:37;;;;;;;6.97;2.63;;;;;;;;;;5009618;28;20021;-71
2022/01/21 14:26:05;;;;;;;13.00;3.22;;;;;;;;;;5009423;28;20021;-70
2022/01/21 14:28:50;;;;;;;10.20;3.28;;;;;;;;;;5005573;28;20475;-72
2022/01/21 14:31:37;;;;;;;9.73;3.30;;;;;;;;;;4984306;28;20050;-74
2022/01/21 14:34:06;;;;;;;10.38;3.15;;;;;;;;;;5016360;28;20034;-73
2022/01/21 14:36:34;;;;;;;6.72;2.78;;;;;;;;;;5019092;28;20037;-74
2022/01/21 14:39:16;;;;;;;11.85;3.10;;;;;;;;;;5012757;28;20137;-73
2022/01/21 14:41:48;;;;;;;8.55;2.85;;;;;;;;;;5000251;28;20042;-74
2022/01/21 14:44:14;;;;;;;9.65;3.13;;;;;;;;;;4997942;28;20045;-74
2022/01/21 14:46:40;;;;;;;6.95;2.83;;;;;;;;;;5016511;28;20037;-75
2022/01/21 14:49:08;;;;;;;11.02;2.58;;;;;;;;;;5013847;28;20076;-75
2022/01/21 14:52:33;;;;;;;7.75;3.10;;;;;;;;;;5019912;28;20038;-74
2022/01/21 14:54:38;;;;;;;9.40;2.78;;;;;;;;;;5013165;28;20038;-74
2022/01/21 14:57:06;;;;;;;7.25;2.55;;;;;;;;;;5000257;28;20054;-74
2022/01/21 14:59:33;;;;;;;6.70;2.88;;;;;;;;;;5019104;28;20041;-74
2022/01/21 15:01:59;;;;;;;11.77;2.85;;;;;;;;;;5016040;28;20053;-72
2022/01/21 15:04:25;;;;;;;7.68;3.03;;;;;;;;;;5014972;28;20034;-74
2022/01/21 15:07:12;;;;;;;8.98;2.63;;;;;;;;;;5007921;28;20037;-73
2022/01/21 15:09:46;;;;;;;6.57;2.67;;;;;;;;;;5008199;28;20041;-73
2022/01/21 15:15:42;;;;;;;7.88;2.60;;;;;;;;;;5013417;28;20700;-73
2022/01/21 15:18:13;;;;;;;6.07;2.20;;;;;;;;;;5007705;28;20041;-73
2022/01/21 15:20:42;;;;;;;6.90;2.50;;;;;;;;;;5009197;28;20472;-74
2022/01/21 15:23:08;;;;;;;6.57;2.03;;;;;;;;;;5019661;28;20067;-71
2022/01/21 15:25:35;;;;;;;7.70;2.10;;;;;;;;;;5021599;28;20037;-71
2022/01/21 15:28:02;;;;;;;6.03;2.45;;;;;;;;;;5019189;28;20045;-71
2022/01/21 15:30:28;;;;;;;9.15;2.33;;;;;;;;;;5018872;28;20544;-71
2022/01/21 15:32:55;;;;;;;6.90;2.28;;;;;;;;;;5010749;28;20268;-72
2022/01/21 15:35:22;;;;;;;6.82;2.28;;;;;;;;;;5010955;28;21125;-72
2022/01/21 15:37:49;;;;;;;8.32;2.13;;;;;;;;;;5000840;28;20479;-70
2022/01/21 15:40:16;;;;;;;9.02;2.53;;;;;;;;;;4988941;28;21002;-72
2022/01/21 15:42:43;;;;;;;6.05;2.55;;;;;;;;;;5012773;28;20355;-71
2022/01/21 15:45:10;;;;;;;6.68;2.10;;;;;;;;;;5008036;28;20029;-70
2022/01/21 15:47:37;;;;;;;8.05;2.53;;;;;;;;;;4976939;28;20048;-70
2022/01/21 15:50:06;;;;;;;13.30;2.83;;;;;;;;;;4951131;28;20038;-70
2022/01/21 15:52:33;;;;;;;10.00;2.97;;;;;;;;;;4962955;28;20496;-70
2022/01/21 15:54:59;;;;;;;9.13;2.28;;;;;;;;;;4965236;28;20127;-70
2022/01/21 15:57:25;;;;;;;8.65;2.30;;;;;;;;;;4965026;28;20592;-72
2022/01/21 15:59:51;;;;;;;7.90;2.50;;;;;;;;;;4965463;28;20417;-72